Time;durP1;ratioP1;P1;durP2;ratioP2;P2;SDS_P1;SDS_P2;PMS_P1;PMS_P2;Temp;Humidity;BMP_temperature;BMP_pressure;BME280_temperature;BME280_humidity;BME280_pressure;Samples;Min_cycle;Max_cycle;Signal;HPM_P1;HPM_P2
2021/01/07 00:02:25;;;;;;;21.52;11.20;;;;;;;1.95;87.31;99048.34;5115800;28;20042;-68
2021/01/07 00:04:52;;;;;;;23.40;10.63;;;;;;;1.92;87.42;99044.91;5115757;28;20040;-68
2021/01/07 00:07:22;;;;;;;20.55;10.07;;;;;;;1.90;86.85;99044.00;5115609;28;20036;-68
2021/01/07 00:09:49;;;;;;;15.57;8.60;;;;;;;1.87;86.70;99037.22;5115667;28;20088;-68
2021/01/07 00:12:18;;;;;;;21.15;9.35;;;;;;;1.87;87.55;99041.44;5115526;28;20489;-68
2021/01/07 00:14:45;;;;;;;16.33;8.75;;;;;;;1.96;87.78;99044.16;5115544;28;20047;-68
2021/01/07 00:17:13;;;;;;;21.75;10.88;;;;;;;1.98;87.75;99042.53;5115453;28;20039;-68
2021/01/07 00:19:41;;;;;;;20.00;9.98;;;;;;;2.03;87.56;99048.50;5115461;28;20527;-68
2021/01/07 00:22:08;;;;;;;20.10;10.25;;;;;;;2.05;87.08;99049.41;5115324;28;20040;-68
2021/01/07 00:24:37;;;;;;;18.20;9.68;;;;;;;2.07;87.55;99055.31;5115690;28;20043;-68
2021/01/07 00:27:05;;;;;;;17.70;9.63;;;;;;;2.10;87.54;99050.34;5115188;28;20427;-68
2021/01/07 00:29:33;;;;;;;29.40;14.50;;;;;;;1.98;87.08;99029.94;5115265;28;20553;-68
2021/01/07 00:32:02;;;;;;;36.30;15.27;;;;;;;2.13;86.79;99057.97;5115201;28;20044;-68
2021/01/07 00:34:29;;;;;;;27.45;12.70;;;;;;;2.15;86.74;99061.38;5115186;28;20080;-68
2021/01/07 00:36:58;;;;;;;18.50;9.40;;;;;;;2.11;86.87;99059.63;5115376;28;20513;-68
2021/01/07 00:39:25;;;;;;;17.08;10.15;;;;;;;2.02;86.73;99064.41;5115067;28;20071;-68
2021/01/07 00:41:55;;;;;;;20.35;10.60;;;;;;;2.00;87.24;99071.94;5115048;28;20075;-68
2021/01/07 00:44:23;;;;;;;29.58;12.68;;;;;;;1.94;87.26;99086.06;5115270;28;20039;-68
2021/01/07 00:46:51;;;;;;;26.13;12.07;;;;;;;1.94;86.92;99068.44;5114688;28;20078;-68
2021/01/07 00:49:19;;;;;;;24.85;12.93;;;;;;;1.95;87.20;99067.59;5114968;28;20145;-68
2021/01/07 00:51:48;;;;;;;23.80;12.35;;;;;;;1.70;87.35;99030.13;5113647;28;20051;-68
2021/01/07 00:54:18;;;;;;;24.67;13.00;;;;;;;2.01;87.79;99067.75;5113368;28;20043;-68
2021/01/07 00:56:47;;;;;;;24.05;12.73;;;;;;;2.01;87.53;99075.31;5114827;28;20053;-68
2021/01/07 00:59:24;;;;;;;25.88;13.77;;;;;;;1.97;87.84;99076.88;5113498;28;20043;-68
2021/01/07 01:01:52;;;;;;;24.67;12.32;;;;;;;2.04;87.58;99082.91;5114738;28;20497;-68
2021/01/07 01:04:19;;;;;;;26.08;13.13;;;;;;;2.03;87.39;99064.47;5114889;28;20101;-68
2021/01/07 01:06:48;;;;;;;21.67;12.63;;;;;;;2.01;87.80;99078.69;5114483;28;20047;-68
2021/01/07 01:09:16;;;;;;;24.92;12.70;;;;;;;2.06;87.13;99081.31;5113329;28;20050;-68
2021/01/07 01:11:46;;;;;;;25.42;12.77;;;;;;;2.10;87.96;99078.03;5114509;28;20039;-68
2021/01/07 01:14:17;;;;;;;25.70;13.13;;;;;;;2.06;87.77;99067.88;5114952;28;20044;-68
2021/01/07 01:16:47;;;;;;;26.48;12.65;;;;;;;1.97;87.81;99071.84;5114708;28;20065;-68
2021/01/07 01:19:16;;;;;;;26.05;12.48;;;;;;;1.68;87.23;99022.53;5114413;28;20074;-68
2021/01/07 01:21:44;;;;;;;25.42;12.00;;;;;;;1.61;87.70;99014.84;5114295;28;20397;-68
2021/01/07 01:24:13;;;;;;;24.08;12.05;;;;;;;1.98;87.98;99082.78;5114326;28;20055;-68
2021/01/07 01:26:41;;;;;;;31.08;13.23;;;;;;;2.01;87.61;99076.16;5114103;28;20131;-68
2021/01/07 01:29:09;;;;;;;24.58;11.80;;;;;;;2.07;87.86;99070.41;5114206;28;20057;-68
2021/01/07 01:31:38;;;;;;;26.23;13.18;;;;;;;2.11;87.53;99069.69;5114185;28;20051;-68
2021/01/07 01:34:07;;;;;;;22.98;10.93;;;;;;;2.07;87.65;99067.88;5114254;28;20055;-68
2021/01/07 01:36:35;;;;;;;25.55;12.10;;;;;;;2.02;88.11;99074.47;5114197;28;20198;-68
2021/01/07 01:39:03;;;;;;;23.17;10.45;;;;;;;1.98;87.78;99062.66;5114446;28;20036;-68
2021/01/07 01:41:31;;;;;;;23.95;11.80;;;;;;;1.91;87.75;99040.69;5114070;28;20044;-68
2021/01/07 01:43:59;;;;;;;23.35;11.00;;;;;;;2.06;87.62;99071.25;5114094;28;20556;-68
2021/01/07 01:46:27;;;;;;;22.27;10.40;;;;;;;2.08;87.85;99072.13;5113618;28;20075;-68
2021/01/07 01:48:55;;;;;;;21.60;11.07;;;;;;;2.13;87.15;99073.06;5114023;28;20047;-68
2021/01/07 01:51:24;;;;;;;19.77;10.23;;;;;;;2.13;87.79;99069.69;5114271;28;20043;-68
2021/01/07 01:53:53;;;;;;;20.55;10.55;;;;;;;2.08;87.25;99069.59;5112866;28;20453;-68
2021/01/07 01:56:21;;;;;;;23.42;10.93;;;;;;;2.07;87.14;99072.91;5112800;28;20423;-68
2021/01/07 01:58:50;;;;;;;20.70;9.95;;;;;;;2.06;87.35;99071.25;5114189;28;20507;-68
2021/01/07 02:01:18;;;;;;;22.77;10.52;;;;;;;2.02;86.96;99059.38;5113928;28;20047;-68
2021/01/07 02:03:46;;;;;;;21.45;10.98;;;;;;;1.98;86.83;99067.69;5113844;28;20374;-68
2021/01/07 02:06:16;;;;;;;22.73;11.23;;;;;;;1.99;87.70;99069.41;5114410;28;20043;-68
2021/01/07 02:08:46;;;;;;;21.75;11.23;;;;;;;1.91;87.57;99046.56;5117984;28;20370;-68
2021/01/07 02:11:16;;;;;;;20.05;10.65;;;;;;;1.98;86.95;99066.03;5118033;27;20124;-68
2021/01/07 02:13:46;;;;;;;21.38;11.15;;;;;;;1.97;86.89;99055.91;5117932;28;20138;-68
2021/01/07 02:16:19;;;;;;;22.83;10.82;;;;;;;1.95;87.64;99063.44;5117955;28;20048;-68
2021/01/07 02:18:47;;;;;;;21.33;10.82;;;;;;;1.98;87.17;99073.56;5117851;28;20043;-68
2021/01/07 02:21:16;;;;;;;26.98;12.40;;;;;;;1.96;86.91;99061.78;5118029;28;20081;-68
2021/01/07 02:23:48;;;;;;;25.02;12.43;;;;;;;1.96;87.10;99059.25;5117607;28;20039;-68
2021/01/07 02:26:16;;;;;;;24.52;11.52;;;;;;;1.89;87.51;99057.41;5117729;28;20489;-68
2021/01/07 02:28:44;;;;;;;24.90;11.43;;;;;;;1.91;87.42;99063.31;5116657;28;20044;-68
2021/01/07 02:31:14;;;;;;;21.83;10.43;;;;;;;1.89;87.19;99072.50;5117638;28;20071;-68
2021/01/07 02:33:42;;;;;;;19.63;10.80;;;;;;;1.88;87.76;99070.78;5116382;28;20503;-68
2021/01/07 02:36:11;;;;;;;23.48;10.93;;;;;;;1.80;87.20;99062.25;5117452;28;20397;-68
2021/01/07 02:38:40;;;;;;;22.42;10.75;;;;;;;1.85;87.62;99065.69;5117501;28;20048;-68
2021/01/07 02:41:09;;;;;;;;;;;;;;;1.88;87.51;99070.78;5118084;28;20048;-68
2021/01/07 02:43:38;;;;;;;22.25;10.43;;;;;;;1.94;87.26;99065.91;5117390;28;19920;-68
2021/01/07 02:46:06;;;;;;;20.10;10.55;;;;;;;1.94;87.34;99065.91;5117067;28;20052;-68
2021/01/07 02:48:34;;;;;;;21.05;11.13;;;;;;;1.88;86.90;99066.63;5117266;28;20485;-68
2021/01/07 02:51:01;;;;;;;19.40;10.38;;;;;;;1.74;87.49;99047.00;5117166;28;20093;-68
2021/01/07 02:53:29;;;;;;;21.75;11.02;;;;;;;1.91;87.20;99073.41;5117132;28;20539;-68
2021/01/07 02:55:58;;;;;;;21.67;10.07;;;;;;;1.67;87.31;99038.47;5117033;28;20050;-68
2021/01/07 02:58:38;;;;;;;24.13;10.93;;;;;;;1.85;87.64;99065.69;5117126;28;20151;-68
2021/01/07 03:01:06;;;;;;;21.33;10.73;;;;;;;1.80;87.58;99069.78;5116989;28;20074;-68
2021/01/07 03:03:33;;;;;;;21.55;10.40;;;;;;;1.79;87.22;99063.03;5115785;28;20040;-68
2021/01/07 03:06:01;;;;;;;22.27;10.88;;;;;;;1.78;87.54;99062.19;5116779;28;20047;-68
2021/01/07 03:08:29;;;;;;;22.00;11.02;;;;;;;1.82;87.72;99063.13;5116873;27;20412;-68
2021/01/07 03:10:57;;;;;;;22.67;11.05;;;;;;;1.80;87.99;99063.06;5116853;28;20066;-68
2021/01/07 03:13:27;;;;;;;23.90;11.68;;;;;;;1.81;87.39;99064.78;5116833;27;20130;-68
2021/01/07 03:15:55;;;;;;;23.77;10.52;;;;;;;1.80;87.87;99073.13;5116708;28;20366;-68
2021/01/07 03:18:23;;;;;;;24.30;11.98;;;;;;;1.85;87.81;99071.56;5116131;28;20122;-68
2021/01/07 03:20:50;;;;;;;18.65;10.30;;;;;;;1.83;87.34;99077.38;5116615;28;20093;-68
2021/01/07 03:23:20;;;;;;;19.52;10.02;;;;;;;1.83;88.00;99072.34;5116511;28;20046;-68
2021/01/07 03:25:48;;;;;;;22.15;9.93;;;;;;;1.80;87.87;99065.56;5116496;28;20413;-68
2021/01/07 03:28:16;;;;;;;18.92;9.90;;;;;;;1.89;87.05;99075.03;5116441;28;20433;-68
2021/01/07 03:30:44;;;;;;;15.52;8.45;;;;;;;1.92;86.78;99077.63;5116478;28;20040;-68
2021/01/07 03:33:13;;;;;;;14.48;7.97;;;;;;;1.94;87.44;99076.81;5116362;28;20557;-68
2021/01/07 03:35:40;;;;;;;14.60;7.70;;;;;;;1.98;86.92;99077.75;5116343;28;20126;-68
2021/01/07 03:38:08;;;;;;;18.42;8.45;;;;;;;1.85;86.71;99063.16;5116284;28;20148;-68
2021/01/07 03:40:36;;;;;;;14.73;7.63;;;;;;;1.98;86.93;99078.59;5116255;28;20050;-69
2021/01/07 03:43:04;;;;;;;13.30;7.55;;;;;;;1.87;86.41;99064.06;5116156;28;20112;-69
2021/01/07 03:45:32;;;;;;;15.88;7.90;;;;;;;1.93;86.56;99084.34;5115998;28;20507;-68
2021/01/07 03:48:01;;;;;;;14.07;7.80;;;;;;;1.95;87.23;99081.03;5116023;28;20047;-68
2021/01/07 03:50:28;;;;;;;15.23;7.93;;;;;;;1.95;87.04;99078.53;5116010;28;20437;-68
2021/01/07 03:52:56;;;;;;;12.52;7.60;;;;;;;1.97;86.90;99081.06;5116028;28;20118;-68
2021/01/07 03:55:24;;;;;;;15.02;7.85;;;;;;;2.00;86.47;99076.97;5115906;28;20443;-68
2021/01/07 03:57:51;;;;;;;17.27;8.63;;;;;;;1.99;86.96;99079.47;5115946;28;20067;-68
2021/01/07 04:00:20;;;;;;;14.35;7.80;;;;;;;1.99;86.47;99077.78;5116122;28;20047;-68
2021/01/07 04:02:48;;;;;;;13.65;7.10;;;;;;;2.02;86.84;99077.84;5115757;28;20050;-69
2021/01/07 04:05:16;;;;;;;15.77;8.23;;;;;;;2.02;87.06;99079.50;5115737;28;20047;-68
2021/01/07 04:07:44;;;;;;;13.55;7.28;;;;;;;1.98;87.17;99083.63;5115656;28;20497;-68
2021/01/07 04:10:12;;;;;;;16.48;8.20;;;;;;;2.00;86.82;99083.66;5115613;28;20134;-68
2021/01/07 04:12:39;;;;;;;16.30;7.57;;;;;;;1.97;86.49;99086.09;5115584;28;20048;-68
2021/01/07 04:15:08;;;;;;;13.38;7.00;;;;;;;1.98;86.83;99083.63;5115816;27;20039;-68
2021/01/07 04:17:37;;;;;;;13.07;7.25;;;;;;;1.98;86.53;99088.66;5115562;28;20523;-68
2021/01/07 04:20:08;;;;;;;11.35;6.72;;;;;;;1.97;86.32;99093.66;5115721;28;20118;-68
2021/01/07 04:22:39;;;;;;;11.75;5.55;;;;;;;1.95;86.22;99088.59;5115996;28;20112;-68
2021/01/07 04:25:09;;;;;;;13.15;6.45;;;;;;;1.93;85.96;99094.41;5115459;28;20100;-68
2021/01/07 04:27:36;;;;;;;11.93;6.35;;;;;;;1.91;86.67;99091.00;5115233;28;20043;-68
2021/01/07 04:30:07;;;;;;;11.52;5.97;;;;;;;1.88;86.76;99100.97;5114958;28;20050;-68
2021/01/07 04:32:36;;;;;;;10.82;5.70;;;;;;;1.88;86.31;99095.94;5115159;28;20054;-68
2021/01/07 04:35:05;;;;;;;11.52;5.78;;;;;;;1.88;85.93;99095.94;5115183;28;20092;-68
2021/01/07 04:37:34;;;;;;;12.32;5.88;;;;;;;1.86;85.94;99092.56;5115046;28;20044;-68
2021/01/07 04:40:05;;;;;;;9.82;4.97;;;;;;;1.59;86.57;99066.72;5115083;28;20503;-68
2021/01/07 04:42:33;;;;;;;9.07;5.10;;;;;;;1.80;86.67;99089.91;5114992;28;20055;-68
2021/01/07 04:45:01;;;;;;;12.35;6.38;;;;;;;1.66;86.69;99068.56;5114998;27;20415;-69
2021/01/07 04:47:30;;;;;;;11.77;6.00;;;;;;;1.78;86.61;99094.03;5114858;28;20475;-68
2021/01/07 04:49:58;;;;;;;10.77;6.22;;;;;;;1.74;86.26;99098.13;5114883;28;20046;-69
2021/01/07 04:52:26;;;;;;;11.45;6.38;;;;;;;1.74;86.10;99102.31;5114706;28;20082;-68
2021/01/07 04:54:55;;;;;;;10.40;5.93;;;;;;;1.72;86.35;99101.44;5114775;28;20057;-68
2021/01/07 04:57:23;;;;;;;8.57;4.75;;;;;;;1.74;86.28;99097.28;5114769;28;20071;-68
2021/01/07 04:59:51;;;;;;;10.30;5.15;;;;;;;1.72;86.49;99103.94;5115224;28;20051;-69
2021/01/07 05:02:20;;;;;;;9.30;5.00;;;;;;;1.48;87.03;99075.69;5114659;28;20040;-68
2021/01/07 05:04:49;;;;;;;11.48;5.85;;;;;;;1.40;87.16;99065.41;5114603;28;20043;-68
2021/01/07 05:07:18;;;;;;;9.55;4.93;;;;;;;1.64;87.10;99111.28;5114700;28;20059;-68
2021/01/07 05:09:46;;;;;;;10.35;5.53;;;;;;;1.67;87.20;99108.88;5114521;28;20147;-68
2021/01/07 05:12:16;;;;;;;10.43;5.78;;;;;;;1.67;87.59;99108.88;5114536;28;20501;-68
2021/01/07 05:14:44;;;;;;;11.43;5.32;;;;;;;1.70;87.40;99108.09;5114412;28;20039;-68
2021/01/07 05:17:13;;;;;;;8.90;4.93;;;;;;;1.64;87.30;99105.41;5114447;28;20127;-68
2021/01/07 05:19:41;;;;;;;10.23;4.57;;;;;;;1.75;86.91;99119.13;5114358;28;20104;-68
2021/01/07 05:22:09;;;;;;;9.68;4.63;;;;;;;1.74;87.31;99112.38;5114411;28;20047;-68
2021/01/07 05:24:39;;;;;;;9.10;4.90;;;;;;;1.72;87.33;99116.53;5114230;28;20043;-68
2021/01/07 05:27:08;;;;;;;8.57;4.88;;;;;;;1.01;87.05;99004.94;5114003;28;20296;-68
2021/01/07 05:29:37;;;;;;;8.65;4.40;;;;;;;1.69;86.82;99113.91;5114240;28;20075;-68
2021/01/07 05:32:06;;;;;;;9.40;4.60;;;;;;;1.72;86.55;99119.03;5114271;28;20134;-68
2021/01/07 05:34:46;;;;;;;8.65;4.63;;;;;;;0.65;86.74;98949.59;5114222;28;20096;-68
2021/01/07 05:37:19;;;;;;;8.55;4.30;;;;;;;1.76;87.08;99130.88;5114247;28;20063;-68
2021/01/07 05:39:48;;;;;;;8.38;4.53;;;;;;;1.77;86.79;99130.06;5114117;28;20047;-68
2021/01/07 05:42:16;;;;;;;8.07;4.47;;;;;;;1.74;87.14;99133.34;5113982;28;20070;-69
2021/01/07 05:44:46;;;;;;;7.47;4.13;;;;;;;1.69;86.90;99134.03;5113670;28;20040;-69
2021/01/07 05:47:23;;;;;;;10.63;4.70;;;;;;;1.74;86.83;99132.50;5113832;28;20058;-68
2021/01/07 05:49:52;;;;;;;8.40;4.25;;;;;;;1.69;86.49;99132.38;5113999;28;20077;-68
2021/01/07 05:52:21;;;;;;;8.13;3.85;;;;;;;1.64;87.33;99141.47;5113925;28;20451;-68
2021/01/07 05:54:49;;;;;;;8.70;4.43;;;;;;;1.63;87.44;99149.81;5113951;28;20071;-68
2021/01/07 05:57:19;;;;;;;10.07;4.43;;;;;;;1.27;86.83;99089.38;5114196;28;20191;-68
2021/01/07 05:59:48;;;;;;;7.25;4.00;;;;;;;1.67;86.83;99150.75;5113955;28;20059;-68
2021/01/07 06:02:18;;;;;;;8.88;4.00;;;;;;;1.68;87.14;99152.47;5112746;28;20454;-68
2021/01/07 06:04:48;;;;;;;7.28;4.10;;;;;;;1.67;86.93;99158.31;5113848;28;20051;-68
2021/01/07 06:07:16;;;;;;;7.03;4.05;;;;;;;1.65;86.98;99153.25;5113763;28;20047;-68
2021/01/07 06:09:47;;;;;;;7.75;4.80;;;;;;;1.69;86.81;99154.16;5113823;28;20051;-68
2021/01/07 06:12:16;;;;;;;7.82;4.25;;;;;;;1.49;87.18;99131.00;5112864;28;20123;-68
2021/01/07 06:14:44;;;;;;;7.40;4.07;;;;;;;1.65;87.30;99162.44;5113773;28;20058;-68
2021/01/07 06:17:13;;;;;;;10.82;4.75;;;;;;;1.67;87.43;99165.84;5113679;28;20136;-68
2021/01/07 06:19:43;;;;;;;9.48;4.32;;;;;;;1.68;86.55;99165.88;5113838;28;20052;-68
2021/01/07 06:22:14;;;;;;;7.72;4.10;;;;;;;1.71;87.11;99170.13;5113783;28;20058;-68
2021/01/07 06:24:45;;;;;;;7.72;3.92;;;;;;;1.65;87.29;99162.44;5113705;28;20052;-69
2021/01/07 06:27:20;;;;;;;6.05;3.10;;;;;;;1.63;86.82;99176.66;5113900;28;20115;-68
2021/01/07 06:29:48;;;;;;;8.77;4.30;;;;;;;1.60;87.46;99184.09;5113987;28;20075;-68
2021/01/07 06:32:20;;;;;;;8.88;4.20;;;;;;;1.65;86.75;99187.59;5113592;28;20116;-68
2021/01/07 06:34:50;;;;;;;7.22;4.03;;;;;;;1.69;87.60;99185.19;5113928;28;20070;-68
2021/01/07 06:37:30;;;;;;;8.23;4.18;;;;;;;1.69;86.83;99189.38;5113603;28;20504;-68
2021/01/07 06:39:59;;;;;;;6.45;3.70;;;;;;;1.73;87.42;99196.16;5113539;28;20267;-68
2021/01/07 06:42:28;;;;;;;6.75;3.65;;;;;;;1.74;87.28;99197.88;5113501;28;20075;-68
2021/01/07 06:44:57;;;;;;;6.77;4.30;;;;;;;1.76;87.58;99201.28;5113552;28;20047;-69
2021/01/07 06:47:29;;;;;;;9.27;4.30;;;;;;;1.41;86.73;99146.72;5113515;28;20047;-68
2021/01/07 06:49:58;;;;;;;7.70;3.90;;;;;;;1.61;86.49;99183.31;5113472;28;20080;-68
2021/01/07 06:52:27;;;;;;;7.97;4.40;;;;;;;1.79;86.96;99216.47;5114332;28;20036;-68
2021/01/07 06:54:56;;;;;;;6.43;3.50;;;;;;;1.80;86.54;99218.19;5117400;28;20089;-68
2021/01/07 06:57:23;;;;;;;7.10;3.67;;;;;;;1.77;86.98;99220.59;5117097;28;20516;-68
2021/01/07 07:00:00;;;;;;;6.65;3.42;;;;;;;0.68;86.56;99046.75;5116972;28;20040;-68
2021/01/07 07:02:29;;;;;;;6.95;3.97;;;;;;;1.64;86.12;99216.06;5117082;28;20054;-68
2021/01/07 07:05:02;;;;;;;6.70;3.78;;;;;;;1.64;85.97;99226.09;5117014;28;20085;-68
2021/01/07 07:07:57;;;;;;;7.65;3.85;;;;;;;1.61;86.07;99226.06;5117170;28;20071;-68
2021/01/07 07:11:00;;;;;;;7.07;3.50;;;;;;;1.62;85.84;99227.75;5113017;28;20099;-68
2021/01/07 07:13:32;;;;;;;7.32;3.78;;;;;;;1.60;86.12;99239.41;5116906;28;20492;-68
2021/01/07 07:16:03;;;;;;;6.78;3.33;;;;;;;1.57;85.90;99244.34;5116782;28;20062;-68
2021/01/07 07:18:34;;;;;;;6.35;3.30;;;;;;;1.20;85.46;99195.56;5116715;28;20044;-68
2021/01/07 07:21:15;;;;;;;6.40;2.90;;;;;;;1.43;85.16;99241.47;5116708;28;20441;-68
2021/01/07 07:23:46;;;;;;;6.07;3.40;;;;;;;1.40;85.38;99243.03;5115529;28;20048;-68
2021/01/07 07:26:29;;;;;;;5.68;3.13;;;;;;;1.43;85.56;99250.66;5116592;28;20054;-68
2021/01/07 07:29:00;;;;;;;6.30;3.40;;;;;;;1.43;84.44;99258.22;5116850;28;20477;-68
2021/01/07 07:31:46;;;;;;;6.38;3.70;;;;;;;1.37;85.42;99260.56;5116550;28;20047;-68
2021/01/07 07:34:27;;;;;;;6.93;3.75;;;;;;;1.42;84.51;99259.03;5116447;28;20544;-68
2021/01/07 07:36:56;;;;;;;8.18;3.85;;;;;;;1.47;84.76;99267.53;5116421;28;20489;-68
2021/01/07 07:39:27;;;;;;;7.68;3.85;;;;;;;1.51;84.71;99269.34;5116256;27;20096;-68
2021/01/07 07:42:08;;;;;;;6.95;4.00;;;;;;;1.47;84.63;99273.41;5116636;27;20047;-68
2021/01/07 07:44:36;;;;;;;7.75;4.20;;;;;;;1.32;84.75;99273.81;5116207;28;20127;-68
2021/01/07 07:47:04;;;;;;;7.50;3.60;;;;;;;1.30;84.37;99265.41;5115906;28;20048;-68
2021/01/07 07:49:33;;;;;;;7.90;4.03;;;;;;;1.34;84.73;99274.72;5114756;28;20496;-68
2021/01/07 07:52:01;;;;;;;7.93;4.35;;;;;;;1.29;84.45;99288.84;5116082;28;20054;-68
2021/01/07 07:54:28;;;;;;;7.18;4.10;;;;;;;1.28;84.24;99287.13;5115944;28;20043;-68
2021/01/07 07:57:00;;;;;;;7.00;3.67;;;;;;;1.25;85.00;99292.06;5115967;28;20047;-68
2021/01/07 07:59:33;;;;;;;7.03;4.18;;;;;;;1.26;84.83;99285.38;5115933;28;20040;-68
2021/01/07 08:02:01;;;;;;;8.68;4.13;;;;;;;1.24;84.74;99290.38;5115809;28;20082;-68
2021/01/07 08:04:29;;;;;;;8.02;4.13;;;;;;;1.39;84.73;99294.13;5116085;28;20118;-68
2021/01/07 08:06:57;;;;;;;8.20;5.15;;;;;;;1.56;85.29;99280.38;5115718;28;20048;-68
2021/01/07 08:09:26;;;;;;;8.90;4.77;;;;;;;2.02;84.04;99280.81;5115661;28;20036;-68
2021/01/07 08:11:54;;;;;;;6.50;3.50;;;;;;;2.08;83.86;99288.53;5098951;27;20130;-68
2021/01/07 08:14:25;;;;;;;6.80;3.65;;;;;;;2.16;83.84;99279.50;5095939;28;20123;-69
2021/01/07 08:16:56;;;;;;;;;;;;;;;2.39;82.16;99280.09;5097215;28;20558;-68
2021/01/07 08:19:30;;;;;;;6.60;3.83;;;;;;;2.83;81.13;99278.66;5095093;28;19919;-68
2021/01/07 08:21:59;;;;;;;8.07;3.58;;;;;;;2.98;81.11;99278.97;5095438;28;20462;-68
2021/01/07 08:24:27;;;;;;;5.57;2.72;;;;;;;3.16;80.76;99286.97;5095086;28;20478;-68
2021/01/07 08:27:09;;;;;;;4.97;2.72;;;;;;;3.24;80.04;99290.50;5094801;28;20075;-68
2021/01/07 08:29:40;;;;;;;5.95;2.78;;;;;;;3.14;79.28;99279.34;5094860;28;20055;-68
2021/01/07 08:32:12;;;;;;;5.65;3.08;;;;;;;3.23;78.82;99293.84;5094841;28;20056;-68
2021/01/07 08:34:41;;;;;;;5.35;2.40;;;;;;;3.21;78.64;99300.53;5094884;28;20055;-68
2021/01/07 08:37:16;;;;;;;4.70;2.10;;;;;;;3.21;77.49;99308.09;5094661;28;20131;-68
2021/01/07 08:39:46;;;;;;;5.13;2.58;;;;;;;3.19;77.05;99304.69;5094764;28;20409;-68
2021/01/07 08:42:16;;;;;;;5.00;2.50;;;;;;;3.27;76.82;99320.81;5094570;28;20469;-68
2021/01/07 08:44:45;;;;;;;4.82;2.22;;;;;;;3.26;76.72;99314.09;5094653;28;20122;-68
2021/01/07 08:47:25;;;;;;;6.03;2.90;;;;;;;3.44;76.99;99322.06;5094449;28;20123;-68
2021/01/07 08:50:03;;;;;;;;;;;;;;;3.72;76.52;99316.75;5074704;28;20072;-68
2021/01/07 08:52:48;;;;;;;4.15;2.33;;;;;;;3.98;75.67;99320.66;5073899;28;20018;-68
2021/01/07 08:55:19;;;;;;;4.70;2.38;;;;;;;3.97;74.99;99318.09;5074229;28;20131;-68
2021/01/07 08:57:47;;;;;;;4.22;2.60;;;;;;;3.71;74.52;99284.78;5074016;28;20170;-68
2021/01/07 09:00:16;;;;;;;8.23;2.13;;;;;;;3.87;73.84;99327.16;5074082;28;20123;-68
2021/01/07 09:02:44;;;;;;;;;;;;;;;3.86;74.26;99322.94;5074447;28;20513;-68
2021/01/07 09:05:13;;;;;;;5.20;2.53;;;;;;;3.98;73.38;99325.69;5072728;28;19920;-68
2021/01/07 09:07:41;;;;;;;6.20;2.60;;;;;;;3.95;73.45;99325.66;5073803;28;20132;-68
2021/01/07 09:10:11;;;;;;;11.70;3.88;;;;;;;3.98;73.16;99325.69;5074325;28;20125;-68
2021/01/07 09:12:39;;;;;;;6.05;2.92;;;;;;;4.00;73.48;99324.06;5073936;28;20580;-68
2021/01/07 09:15:09;;;;;;;5.28;2.67;;;;;;;3.88;73.70;99311.22;5073633;28;20060;-68
2021/01/07 09:17:42;;;;;;;4.55;2.47;;;;;;;3.85;73.83;99322.91;5073843;28;20619;-68
2021/01/07 09:20:12;;;;;;;7.25;2.92;;;;;;;3.85;74.20;99328.81;5073776;28;20387;-68
2021/01/07 09:22:41;;;;;;;;;;;;;;;3.96;73.99;99324.81;5074229;28;20051;-68
2021/01/07 09:25:11;;;;;;;5.43;2.83;;;;;;;3.92;74.12;99325.59;5073658;28;19920;-68
2021/01/07 09:27:39;;;;;;;6.07;2.90;;;;;;;3.85;74.06;99328.81;5073655;28;20119;-68
2021/01/07 09:30:08;;;;;;;5.95;2.85;;;;;;;3.82;74.41;99333.78;5073706;28;20501;-68
2021/01/07 09:32:35;;;;;;;8.17;2.70;;;;;;;3.81;75.22;99347.25;5073901;28;20046;-68
2021/01/07 09:35:04;;;;;;;5.75;2.70;;;;;;;3.80;75.16;99349.72;5073483;28;20742;-68
2021/01/07 09:37:35;;;;;;;6.47;3.10;;;;;;;3.63;75.24;99326.66;5073860;28;20493;-68
2021/01/07 09:40:06;;;;;;;4.80;2.60;;;;;;;3.23;75.08;99281.25;5073864;28;20044;-68
2021/01/07 09:42:35;;;;;;;6.35;3.13;;;;;;;3.47;74.80;99334.75;5073533;28;20049;-68
2021/01/07 09:45:05;;;;;;;6.22;3.40;;;;;;;3.59;74.62;99350.13;5073416;28;20053;-68
2021/01/07 09:47:34;;;;;;;9.80;3.53;;;;;;;3.60;75.00;99356.88;5073452;28;20444;-68
2021/01/07 09:50:02;;;;;;;5.33;3.07;;;;;;;3.58;74.89;99348.41;5073633;28;20136;-68
2021/01/07 09:52:30;;;;;;;5.00;2.63;;;;;;;3.46;75.52;99322.94;5073467;28;20048;-68
2021/01/07 09:54:57;;;;;;;5.95;2.83;;;;;;;3.60;75.25;99346.78;5073731;28;20048;-68
2021/01/07 09:57:26;;;;;;;9.02;3.03;;;;;;;3.61;75.74;99353.53;5073846;28;20135;-68
2021/01/07 09:59:54;;;;;;;4.80;2.60;;;;;;;3.58;75.20;99348.41;5073359;28;20040;-69
2021/01/07 10:02:22;;;;;;;5.55;2.90;;;;;;;3.57;75.00;99346.72;5073312;28;20544;-68
2021/01/07 10:04:49;;;;;;;5.78;2.67;;;;;;;3.59;74.62;99359.38;5073334;28;20054;-68
2021/01/07 10:07:17;;;;;;;5.95;2.92;;;;;;;3.58;74.39;99350.94;5073169;28;20033;-68
2021/01/07 10:09:45;;;;;;;4.75;2.67;;;;;;;3.57;74.44;99350.91;5072028;28;20044;-68
2021/01/07 10:12:12;;;;;;;6.00;2.85;;;;;;;3.59;75.23;99350.13;5073476;28;20048;-68
2021/01/07 10:14:41;;;;;;;7.38;2.92;;;;;;;3.56;74.10;99354.25;5073237;28;20064;-68
2021/01/07 10:17:09;;;;;;;5.78;2.60;;;;;;;3.45;74.24;99336.38;5073169;28;20045;-68
2021/01/07 10:19:38;;;;;;;6.45;3.08;;;;;;;3.52;74.67;99342.41;5073340;28;20131;-68
2021/01/07 10:22:07;;;;;;;5.88;3.00;;;;;;;3.54;75.20;99351.72;5073137;28;20045;-68
2021/01/07 10:24:41;;;;;;;13.40;4.70;;;;;;;3.49;75.76;99353.28;5072001;28;20033;-68
2021/01/07 10:27:11;;;;;;;6.68;3.00;;;;;;;3.55;75.51;99348.34;5073463;28;20086;-68
2021/01/07 10:29:39;;;;;;;;;;;;;;;3.57;75.92;99351.78;5077655;28;20037;-68
2021/01/07 10:32:09;;;;;;;6.95;3.50;;;;;;;3.50;75.95;99334.81;5076738;28;19920;-68
2021/01/07 10:34:40;;;;;;;5.40;3.13;;;;;;;3.54;75.51;99351.72;5076742;28;20044;-68
2021/01/07 10:37:09;;;;;;;5.97;3.25;;;;;;;3.43;75.58;99354.81;5076895;28;20048;-68
2021/01/07 10:39:39;;;;;;;7.82;3.53;;;;;;;3.37;76.01;99353.00;5076823;28;20053;-68
2021/01/07 10:42:09;;;;;;;7.65;3.95;;;;;;;3.35;76.94;99349.59;5076588;28;20037;-68
2021/01/07 10:44:38;;;;;;;8.02;3.85;;;;;;;3.43;76.85;99357.34;5076716;28;20075;-68
2021/01/07 10:47:09;;;;;;;8.45;4.13;;;;;;;3.27;77.59;99351.94;5076383;28;20036;-68
2021/01/07 10:49:41;;;;;;;8.63;4.55;;;;;;;3.20;77.20;99360.19;5076619;28;20052;-68
2021/01/07 10:52:30;;;;;;;7.88;4.35;;;;;;;3.30;77.95;99357.06;5076548;28;20056;-68
2021/01/07 10:55:25;;;;;;;9.70;4.60;;;;;;;3.46;77.79;99358.25;5076580;28;20129;-68
2021/01/07 10:58:22;;;;;;;7.28;4.00;;;;;;;3.46;78.06;99358.25;5073233;28;20044;-68
2021/01/07 11:01:07;;;;;;;7.88;4.63;;;;;;;3.44;78.14;99349.78;5076472;28;20524;-68
2021/01/07 11:03:54;;;;;;;8.55;4.25;;;;;;;3.62;78.71;99350.22;5076853;28;20052;-68
2021/01/07 11:06:26;;;;;;;8.88;4.72;;;;;;;3.59;78.21;99350.13;5041504;28;20045;-68
2021/01/07 11:08:59;;;;;;;7.22;3.90;;;;;;;3.48;78.20;99351.56;5075724;28;20041;-67
2021/01/07 11:11:32;;;;;;;6.32;3.88;;;;;;;3.41;77.78;99339.63;5075797;28;20047;-68
2021/01/07 11:14:06;;;;;;;10.23;4.25;;;;;;;3.37;77.97;99322.75;5076147;28;20052;-68
2021/01/07 11:16:41;;;;;;;8.70;4.28;;;;;;;3.83;78.25;99340.56;5076140;28;20554;-68
2021/01/07 11:19:14;;;;;;;7.00;4.10;;;;;;;4.26;76.70;99334.66;5075990;28;20079;-67
2021/01/07 11:21:53;;;;;;;7.57;3.90;;;;;;;5.05;75.79;99343.59;5076112;28;20049;-68
2021/01/07 11:24:21;;;;;;;8.32;4.15;;;;;;;5.60;75.04;99340.19;5075862;28;20067;-68
2021/01/07 11:26:50;;;;;;;6.60;3.38;;;;;;;5.88;73.73;99338.06;5075896;28;20437;-68
2021/01/07 11:29:19;;;;;;;7.25;3.55;;;;;;;5.18;72.66;99265.38;5075713;28;20036;-68
2021/01/07 11:31:53;;;;;;;5.05;3.08;;;;;;;5.29;71.74;99322.06;5076031;28;20102;-68
2021/01/07 11:34:22;;;;;;;7.70;4.00;;;;;;;5.43;72.29;99333.22;5075675;28;20429;-68
2021/01/07 11:37:00;;;;;;;6.45;3.42;;;;;;;4.85;72.26;99333.16;5075715;28;20498;-68
2021/01/07 11:39:45;;;;;;;6.75;3.30;;;;;;;4.60;73.52;99333.59;5075320;28;20049;-68
2021/01/07 11:42:26;;;;;;;7.32;3.40;;;;;;;4.59;73.75;99331.88;5075892;28;20053;-68
2021/01/07 11:45:00;;;;;;;5.80;3.65;;;;;;;4.44;74.40;99322.34;5075330;28;20048;-68
2021/01/07 11:47:30;;;;;;;6.63;3.58;;;;;;;4.56;74.59;99341.91;5075470;28;20052;-68
2021/01/07 11:50:03;;;;;;;6.70;3.65;;;;;;;4.35;74.37;99339.03;5075400;28;20052;-68
2021/01/07 11:52:36;;;;;;;5.93;3.42;;;;;;;4.15;75.13;99313.38;5075518;28;20050;-68